Time;durP1;ratioP1;P1;durP2;ratioP2;P2;SDS_P1;SDS_P2;PMS_P1;PMS_P2;Temp;Humidity;BMP_temperature;BMP_pressure;BME280_temperature;BME280_humidity;BME280_pressure;Samples;Min_cycle;Max_cycle;Signal;HPM_P1;HPM_P2
2021/06/29 02:45:18;;;;;;;10.95;6.93;;;22.60;87.20;;;;;;5573274;24;20024;-76
2021/06/29 02:47:44;;;;;;;10.65;6.88;;;22.60;87.20;;;;;;4722381;30;20041;-78
2021/06/29 02:50:10;;;;;;;8.05;6.43;;;22.60;87.10;;;;;;4709712;30;20033;-76
2021/06/29 02:52:37;;;;;;;14.60;7.45;;;22.50;87.60;;;;;;4711472;30;20053;-76
2021/06/29 02:55:06;;;;;;;8.02;6.82;;;22.50;87.70;;;;;;4711346;30;20104;-76
2021/06/29 02:57:32;;;;;;;8.90;7.10;;;22.50;87.70;;;;;;4711493;30;20096;-76
2021/06/29 02:59:58;;;;;;;9.20;6.35;;;22.50;87.80;;;;;;4710307;30;20118;-76
2021/06/29 03:02:24;;;;;;;12.82;7.38;;;22.50;87.80;;;;;;4711311;30;20037;-76
2021/06/29 03:04:49;;;;;;;12.35;7.28;;;22.50;88.10;;;;;;4710159;30;20030;-76
2021/06/29 03:07:15;;;;;;;9.88;7.65;;;22.50;89.10;;;;;;4710341;30;20033;-76
2021/06/29 03:09:41;;;;;;;10.50;6.97;;;22.50;88.20;;;;;;4709966;30;20044;-76
2021/06/29 03:12:07;;;;;;;12.10;7.82;;;22.50;88.40;;;;;;4711074;30;20067;-76
2021/06/29 03:14:35;;;;;;;10.88;6.97;;;22.50;88.40;;;;;;4711104;30;20043;-75
2021/06/29 03:17:03;;;;;;;8.35;7.25;;;22.50;88.50;;;;;;4709700;30;20061;-76
2021/06/29 03:19:30;;;;;;;9.63;7.10;;;22.50;88.80;;;;;;4711029;30;20120;-76
2021/06/29 03:21:56;;;;;;;9.18;7.38;;;22.50;88.70;;;;;;4710127;30;20056;-76
2021/06/29 03:24:22;;;;;;;8.15;7.35;;;22.50;88.50;;;;;;4709602;30;20125;-77
2021/06/29 03:26:48;;;;;;;13.48;7.45;;;22.60;88.70;;;;;;4710703;30;20041;-76
2021/06/29 03:29:13;;;;;;;10.90;7.70;;;22.60;88.20;;;;;;4709615;30;20040;-76
2021/06/29 03:31:39;;;;;;;11.13;7.47;;;22.60;88.10;;;;;;4710683;30;20038;-76
2021/06/29 03:34:05;;;;;;;12.70;7.15;;;22.60;88.30;;;;;;4710816;30;20030;-76
2021/06/29 03:36:31;;;;;;;10.95;7.40;;;22.60;88.20;;;;;;4695482;30;20079;-76
2021/06/29 03:38:57;;;;;;;12.45;7.28;;;22.60;88.00;;;;;;4695229;30;20084;-76
2021/06/29 03:41:24;;;;;;;17.40;7.72;;;22.70;87.50;;;;;;4710719;30;20100;-76
2021/06/29 03:43:50;;;;;;;17.63;8.18;;;22.70;87.40;;;;;;4704047;30;20033;-76
2021/06/29 03:46:15;;;;;;;12.73;7.65;;;22.80;87.80;;;;;;4701385;30;20355;-76
2021/06/29 03:48:41;;;;;;;8.38;7.13;;;22.80;87.70;;;;;;4692135;30;20034;-75
2021/06/29 03:51:29;;;;;;;12.45;8.32;;;22.80;88.00;;;;;;4691712;30;20299;-76
2021/06/29 03:53:55;;;;;;;11.52;6.82;;;22.80;88.10;;;;;;4691508;30;20048;-76
2021/06/29 03:56:24;;;;;;;8.77;7.80;;;22.80;88.10;;;;;;4691293;30;20334;-76
2021/06/29 03:59:03;;;;;;;10.10;7.20;;;22.80;88.10;;;;;;4691586;30;20038;-76
2021/06/29 04:01:30;;;;;;;11.85;7.68;;;22.90;88.60;;;;;;4691330;30;20083;-75
2021/06/29 04:03:57;;;;;;;8.40;7.32;;;22.90;88.60;;;;;;4691291;30;20135;-77
2021/06/29 04:06:24;;;;;;;;;;;23.00;87.80;;;;;;4691702;30;20050;-76
2021/06/29 04:08:51;;;;;;;10.80;8.00;;;23.10;87.50;;;;;;4691227;30;19955;-76
2021/06/29 04:11:17;;;;;;;8.95;6.55;;;23.30;87.50;;;;;;4691154;30;20049;-76
2021/06/29 04:13:43;;;;;;;14.30;7.72;;;23.40;86.90;;;;;;4675814;30;20094;-76
2021/06/29 04:16:09;;;;;;;14.70;7.13;;;23.50;86.20;;;;;;4690026;30;20034;-76
2021/06/29 04:18:34;;;;;;;8.35;7.30;;;23.60;86.10;;;;;;4681135;30;20097;-76
2021/06/29 04:21:00;;;;;;;8.40;6.85;;;23.80;86.00;;;;;;4690963;30;20077;-76
2021/06/29 04:23:26;;;;;;;14.98;7.95;;;23.90;85.00;;;;;;4690922;30;20068;-76
2021/06/29 04:25:52;;;;;;;19.65;7.40;;;24.00;84.60;;;;;;4686966;30;20050;-77
2021/06/29 04:28:18;;;;;;;21.95;8.43;;;24.10;84.00;;;;;;4663586;30;20042;-76
2021/06/29 04:30:44;;;;;;;11.10;7.75;;;24.20;83.50;;;;;;4682291;30;20040;-76
2021/06/29 04:33:09;;;;;;;21.20;8.07;;;24.30;84.10;;;;;;4685254;30;20053;-76
2021/06/29 04:35:35;;;;;;;15.25;8.15;;;24.40;83.60;;;;;;4686815;30;20034;-76
2021/06/29 04:38:01;;;;;;;14.75;7.72;;;24.40;83.30;;;;;;4688786;30;20026;-76
2021/06/29 04:40:27;;;;;;;17.88;7.70;;;24.40;83.60;;;;;;4684891;30;20337;-76
2021/06/29 04:42:52;;;;;;;13.43;8.63;;;24.30;83.60;;;;;;4712111;30;20036;-77
2021/06/29 04:45:19;;;;;;;21.55;8.32;;;24.40;83.30;;;;;;4687751;30;20040;-76
2021/06/29 04:47:47;;;;;;;17.42;7.95;;;24.50;83.00;;;;;;4690906;30;20060;-75
2021/06/29 04:50:17;;;;;;;16.63;8.50;;;24.50;83.20;;;;;;4688934;30;20042;-76
2021/06/29 04:52:44;;;;;;;12.98;7.90;;;24.50;83.00;;;;;;4685010;30;20034;-76
2021/06/29 04:55:10;;;;;;;;;;;24.60;82.10;;;;;;4687985;30;20189;-76
2021/06/29 04:57:36;;;;;;;10.18;7.25;;;24.70;81.50;;;;;;4719718;30;19998;-77
2021/06/29 05:00:09;;;;;;;10.97;6.60;;;24.70;81.00;;;;;;4688918;30;20030;-77
2021/06/29 05:02:36;;;;;;;11.60;6.90;;;24.90;80.40;;;;;;4687449;30;20286;-76
2021/06/29 05:05:03;;;;;;;;;;;25.10;79.90;;;;;;4689896;30;20090;-76
2021/06/29 05:07:28;;;;;;;13.50;7.05;;;25.20;78.80;;;;;;4690679;30;19912;-76
2021/06/29 05:09:55;;;;;;;11.95;7.40;;;25.30;78.40;;;;;;4708186;30;20100;-76
2021/06/29 05:12:21;;;;;;;;;;;25.40;78.20;;;;;;4693370;30;20036;-76
2021/06/29 05:14:47;;;;;;;9.93;6.87;;;25.50;77.90;;;;;;4695571;30;20165;-76
2021/06/29 05:17:13;;;;;;;10.35;6.38;;;25.50;77.70;;;;;;4701955;30;20034;-76
2021/06/29 05:19:39;;;;;;;10.52;6.18;;;26.00;77.00;;;;;;4682034;30;20029;-76
2021/06/29 05:22:06;;;;;;;13.73;6.18;;;26.80;74.30;;;;;;4692036;30;20034;-76
2021/06/29 05:24:31;;;;;;;12.07;6.25;;;27.70;69.80;;;;;;4694564;30;20213;-76
2021/06/29 05:26:57;;;;;;;12.03;6.47;;;28.50;67.70;;;;;;4718204;30;20030;-76
2021/06/29 05:29:23;;;;;;;9.47;5.77;;;29.30;65.20;;;;;;4691561;30;20061;-76
2021/06/29 05:31:49;;;;;;;12.33;5.53;;;29.90;62.80;;;;;;4669886;30;20057;-76
2021/06/29 05:34:16;;;;;;;8.80;5.30;;;30.50;60.50;;;;;;4696527;30;20053;-77
2021/06/29 05:36:42;;;;;;;15.93;5.03;;;30.60;58.30;;;;;;4697897;30;20309;-76
2021/06/29 05:39:08;;;;;;;;;;;30.70;57.10;;;;;;4698051;30;20030;-77
2021/06/29 05:41:34;;;;;;;11.98;5.15;;;30.60;56.60;;;;;;4697438;30;19918;-76
2021/06/29 05:44:01;;;;;;;6.37;4.83;;;30.60;56.20;;;;;;4703687;30;20042;-77
2021/06/29 05:46:27;;;;;;;;;;;30.60;55.60;;;;;;4691850;30;20050;-77
2021/06/29 05:48:53;;;;;;;6.60;5.22;;;30.60;55.60;;;;;;4708793;30;20251;-77
2021/06/29 05:51:20;;;;;;;5.47;4.10;;;30.70;55.30;;;;;;4681833;30;20048;-76
2021/06/29 05:53:46;;;;;;;;;;;30.90;55.00;;;;;;4697223;30;20300;-76
2021/06/29 05:56:12;;;;;;;10.82;4.88;;;31.00;55.00;;;;;;4712928;30;19915;-76
2021/06/29 05:58:39;;;;;;;8.10;5.40;;;31.10;54.50;;;;;;4691020;30;20102;-76
2021/06/29 06:01:08;;;;;;;10.63;5.15;;;31.30;54.30;;;;;;4693381;30;20088;-76
2021/06/29 06:03:34;;;;;;;8.00;4.45;;;31.30;53.50;;;;;;4694333;30;20046;-76
2021/06/29 06:06:00;;;;;;;10.23;4.83;;;31.40;53.60;;;;;;4695987;30;20418;-78
2021/06/29 06:08:26;;;;;;;5.85;4.65;;;31.50;54.20;;;;;;4693819;30;20049;-76
2021/06/29 06:10:56;;;;;;;14.27;4.68;;;31.50;54.50;;;;;;4681387;30;20071;-77
2021/06/29 06:13:22;;;;;;;9.80;5.47;;;31.40;54.40;;;;;;4679063;30;20030;-76
2021/06/29 06:15:48;;;;;;;5.68;4.35;;;30.90;55.30;;;;;;4696474;30;20089;-77
2021/06/29 06:18:14;;;;;;;6.50;4.45;;;30.90;56.90;;;;;;4693869;30;20049;-76
2021/06/29 06:20:40;;;;;;;9.80;5.00;;;31.10;57.00;;;;;;4696328;30;20221;-76
2021/06/29 06:23:06;;;;;;;8.57;4.63;;;31.00;57.40;;;;;;4692960;30;20062;-77
2021/06/29 06:25:34;;;;;;;10.13;4.30;;;31.10;56.30;;;;;;4693275;30;20030;-77
2021/06/29 06:28:01;;;;;;;8.63;4.57;;;31.10;56.50;;;;;;4693474;30;20649;-78
2021/06/29 06:30:26;;;;;;;6.57;4.47;;;30.90;56.60;;;;;;4690645;30;20042;-77
2021/06/29 06:32:52;;;;;;;8.70;5.00;;;30.80;56.70;;;;;;4694079;30;20061;-76
2021/06/29 06:35:18;;;;;;;7.60;5.27;;;30.80;57.40;;;;;;4693469;30;20030;-76
2021/06/29 06:37:44;;;;;;;7.13;4.78;;;30.90;57.50;;;;;;4693685;30;20223;-76
2021/06/29 06:40:11;;;;;;;8.20;4.87;;;31.00;57.00;;;;;;4694817;30;20022;-76
2021/06/29 06:42:38;;;;;;;11.38;4.60;;;31.10;57.00;;;;;;4693225;30;20109;-76
2021/06/29 06:45:06;;;;;;;7.03;5.00;;;30.50;58.70;;;;;;4693329;30;20021;-77
2021/06/29 06:47:32;;;;;;;9.77;4.85;;;30.10;59.40;;;;;;4675772;30;20125;-76
2021/06/29 06:49:57;;;;;;;8.47;5.13;;;30.30;59.70;;;;;;4676803;30;20030;-76
2021/06/29 06:52:23;;;;;;;4.67;3.87;;;30.40;58.70;;;;;;4675686;30;20113;-76
2021/06/29 06:54:49;;;;;;;6.50;4.10;;;30.00;59.40;;;;;;4677050;30;20037;-75
2021/06/29 06:57:15;;;;;;;13.83;4.47;;;29.80;59.70;;;;;;4676537;30;20054;-78
2021/06/29 06:59:40;;;;;;;8.87;4.13;;;29.90;59.20;;;;;;4677385;30;20266;-76
2021/06/29 07:02:07;;;;;;;11.67;5.23;;;29.80;60.30;;;;;;4675893;30;20034;-76
2021/06/29 07:04:33;;;;;;;;;;;29.60;60.00;;;;;;4677240;30;20336;-76
2021/06/29 07:06:59;;;;;;;8.30;4.00;;;29.50;60.50;;;;;;4691132;30;19911;-78
2021/06/29 07:09:24;;;;;;;11.23;3.90;;;29.50;61.00;;;;;;4679241;30;20521;-78
2021/06/29 07:11:50;;;;;;;11.87;3.67;;;29.50;61.20;;;;;;4675734;30;20041;-78
2021/06/29 07:14:17;;;;;;;5.13;3.30;;;29.90;61.20;;;;;;4677466;30;20109;-78
2021/06/29 07:16:43;;;;;;;8.68;4.00;;;29.90;59.70;;;;;;4672579;30;20188;-77
2021/06/29 07:19:10;;;;;;;8.17;3.73;;;30.00;59.80;;;;;;4668298;30;20030;-75
2021/06/29 07:21:36;;;;;;;6.07;3.70;;;30.30;59.30;;;;;;4676416;30;20329;-76
2021/06/29 07:24:02;;;;;;;9.03;3.97;;;30.30;59.10;;;;;;4675205;30;20038;-77
2021/06/29 07:26:28;;;;;;;7.35;4.10;;;30.00;60.60;;;;;;4677632;30;20049;-78
2021/06/29 07:28:54;;;;;;;11.23;3.97;;;29.70;60.60;;;;;;4678013;30;20330;-78
2021/06/29 07:31:20;;;;;;;8.87;3.90;;;29.50;60.90;;;;;;4677940;30;20039;-78
2021/06/29 07:33:47;;;;;;;9.30;3.90;;;29.60;60.70;;;;;;4676192;30;20470;-75
2021/06/29 07:36:15;;;;;;;8.45;3.80;;;29.70;60.80;;;;;;4674983;30;20181;-76
2021/06/29 07:38:42;;;;;;;6.97;4.00;;;29.80;60.30;;;;;;4673171;30;20097;-76
2021/06/29 07:41:07;;;;;;;5.18;3.38;;;29.60;61.20;;;;;;4676591;30;20346;-78
2021/06/29 07:43:33;;;;;;;8.17;3.70;;;29.50;61.10;;;;;;4678383;30;20038;-76
2021/06/29 07:45:59;;;;;;;10.90;3.80;;;29.50;60.90;;;;;;4684674;30;20060;-76
2021/06/29 07:48:25;;;;;;;11.47;3.50;;;29.60;60.80;;;;;;4699078;30;20042;-76
2021/06/29 07:50:51;;;;;;;6.93;4.40;;;29.50;60.40;;;;;;4684901;30;20042;-76
2021/06/29 07:53:17;;;;;;;8.90;3.80;;;29.60;60.00;;;;;;4695619;30;20030;-79
2021/06/29 07:55:43;;;;;;;6.63;3.67;;;29.90;60.00;;;;;;4694832;30;20066;-79
2021/06/29 07:58:09;;;;;;;5.97;3.60;;;30.00;59.60;;;;;;4697435;30;20049;-78
2021/06/29 08:00:36;;;;;;;9.98;5.22;;;30.00;59.60;;;;;;4693837;30;20207;-79
2021/06/29 08:03:03;;;;;;;8.48;4.13;;;30.10;59.60;;;;;;4696801;30;20045;-79
2021/06/29 08:05:29;;;;;;;7.53;4.03;;;30.40;60.40;;;;;;4697959;30;20170;-79
2021/06/29 08:07:55;;;;;;;8.32;3.72;;;30.50;59.00;;;;;;4697633;30;20042;-78
2021/06/29 08:10:22;;;;;;;9.30;4.30;;;30.70;59.00;;;;;;4697771;30;20301;-79
2021/06/29 08:12:49;;;;;;;10.35;5.38;;;30.80;58.20;;;;;;4697569;30;20030;-79
2021/06/29 08:15:15;;;;;;;8.65;3.83;;;30.90;59.00;;;;;;4698040;30;20038;-79
2021/06/29 08:17:43;;;;;;;8.25;4.28;;;31.10;58.10;;;;;;4700966;30;20188;-79
2021/06/29 08:20:10;;;;;;;11.07;4.72;;;31.00;56.90;;;;;;4696461;30;20052;-78
2021/06/29 08:22:36;;;;;;;7.88;4.65;;;31.10;56.80;;;;;;4698382;30;20042;-79
2021/06/29 08:25:04;;;;;;;12.73;4.20;;;30.70;57.20;;;;;;4698366;30;20122;-78
2021/06/29 08:27:30;;;;;;;7.22;3.88;;;30.80;59.40;;;;;;4698342;30;20038;-79
2021/06/29 08:29:57;;;;;;;10.37;4.20;;;30.80;57.50;;;;;;4698080;30;20042;-78
2021/06/29 08:32:24;;;;;;;6.45;3.83;;;30.70;57.90;;;;;;4698461;30;20140;-78
2021/06/29 08:34:49;;;;;;;16.35;4.45;;;30.90;58.90;;;;;;4697540;30;20057;-78
2021/06/29 08:37:16;;;;;;;8.90;3.97;;;31.00;57.60;;;;;;4697880;30;20038;-78
2021/06/29 08:39:41;;;;;;;8.77;4.82;;;30.90;57.80;;;;;;4706559;30;20034;-78
2021/06/29 08:42:08;;;;;;;7.57;4.03;;;30.70;57.50;;;;;;4696094;30;20050;-78
2021/06/29 08:44:34;;;;;;;9.10;4.13;;;30.50;58.00;;;;;;4697312;30;20042;-79
2021/06/29 08:47:00;;;;;;;8.88;3.75;;;30.50;59.00;;;;;;4697322;30;20057;-78
2021/06/29 08:49:26;;;;;;;8.38;4.03;;;30.70;59.00;;;;;;4697303;30;20321;-78
2021/06/29 08:51:52;;;;;;;8.30;5.13;;;30.90;57.90;;;;;;4698624;30;20065;-78
2021/06/29 08:54:20;;;;;;;12.20;3.85;;;31.00;57.90;;;;;;4698062;30;20045;-79
2021/06/29 08:56:46;;;;;;;6.80;4.43;;;31.00;56.90;;;;;;4697904;30;20034;-78
2021/06/29 08:59:13;;;;;;;7.13;3.97;;;31.10;57.50;;;;;;4697947;30;20287;-78
2021/06/29 09:01:38;;;;;;;5.78;4.05;;;31.20;57.40;;;;;;4697318;30;20042;-78
2021/06/29 09:04:04;;;;;;;5.80;4.23;;;31.50;57.00;;;;;;4698521;30;20061;-78
2021/06/29 09:06:35;;;;;;;6.60;4.47;;;31.70;56.50;;;;;;4696835;30;20034;-78
2021/06/29 09:09:27;;;;;;;8.80;4.10;;;31.60;55.90;;;;;;4707539;30;20034;-78
2021/06/29 09:11:54;;;;;;;8.80;4.35;;;31.50;56.20;;;;;;4694261;30;20094;-78
2021/06/29 09:14:27;;;;;;;9.57;4.32;;;31.50;57.00;;;;;;4697297;30;20034;-78
2021/06/29 09:16:53;;;;;;;8.60;4.55;;;31.60;56.10;;;;;;4709474;30;20038;-79
2021/06/29 09:19:36;;;;;;;12.13;3.90;;;31.80;56.50;;;;;;4701367;30;20081;-79
2021/06/29 09:22:28;;;;;;;7.70;4.00;;;31.80;55.60;;;;;;4709673;30;20038;-78
2021/06/29 09:24:54;;;;;;;10.32;4.20;;;31.50;55.10;;;;;;4672245;30;20068;-78
2021/06/29 09:27:40;;;;;;;5.78;4.18;;;31.30;56.50;;;;;;4695512;30;20026;-79
2021/06/29 09:30:26;;;;;;;4.47;4.05;;;31.40;55.50;;;;;;4692139;30;20041;-78
2021/06/29 09:32:53;;;;;;;9.73;4.32;;;31.60;55.80;;;;;;4680057;30;20045;-79
2021/06/29 09:35:19;;;;;;;8.90;4.40;;;32.00;56.50;;;;;;4697056;30;20053;-79
2021/06/29 09:37:46;;;;;;;5.20;4.33;;;32.00;53.70;;;;;;4697038;30;20054;-79
2021/06/29 09:40:13;;;;;;;9.77;4.05;;;32.00;55.30;;;;;;4700535;30;20318;-79
2021/06/29 09:42:40;;;;;;;8.88;4.10;;;32.10;54.70;;;;;;4702080;30;20105;-79
2021/06/29 09:45:37;;;;;;;11.32;4.20;;;31.90;54.50;;;;;;4698764;30;20038;-78
2021/06/29 09:48:08;;;;;;;10.82;4.55;;;32.00;55.40;;;;;;4698412;30;20097;-83
2021/06/29 09:50:38;;;;;;;5.72;4.15;;;31.90;53.80;;;;;;4681644;30;20070;-81
2021/06/29 09:53:24;;;;;;;8.80;3.90;;;31.80;56.30;;;;;;4700561;30;20313;-83
2021/06/29 09:55:55;;;;;;;8.55;3.60;;;32.00;54.60;;;;;;4694916;30;20097;-83
2021/06/29 09:58:22;;;;;;;8.00;3.80;;;31.80;54.40;;;;;;4698092;30;20061;-81
2021/06/29 10:00:51;;;;;;;5.75;3.60;;;31.90;55.30;;;;;;4696762;30;20050;-81
2021/06/29 10:03:24;;;;;;;10.02;3.83;;;32.00;54.10;;;;;;4696232;30;20034;-80
2021/06/29 10:05:52;;;;;;;11.88;4.60;;;32.20;55.10;;;;;;4696723;30;20038;-79
2021/06/29 10:08:27;;;;;;;4.60;4.10;;;32.30;53.20;;;;;;4696476;30;20053;-78
2021/06/29 10:11:09;;;;;;;10.02;3.95;;;32.20;52.80;;;;;;4697754;30;20032;-78
2021/06/29 10:13:37;;;;;;;5.22;3.88;;;32.10;53.90;;;;;;4703282;30;20026;-78
2021/06/29 10:16:05;;;;;;;4.82;3.55;;;32.10;54.20;;;;;;4697197;30;20037;-80
2021/06/29 10:18:33;;;;;;;10.80;4.07;;;32.10;54.00;;;;;;4706408;30;20037;-80
2021/06/29 10:21:02;;;;;;;5.97;3.55;;;32.00;53.00;;;;;;4700527;30;20030;-81
2021/06/29 10:23:30;;;;;;;10.02;4.25;;;31.90;53.50;;;;;;4700843;30;20049;-80
2021/06/29 10:25:56;;;;;;;7.43;3.53;;;31.90;53.40;;;;;;4699740;30;20044;-78
2021/06/29 10:28:22;;;;;;;;;;;32.10;53.00;;;;;;4687886;30;20101;-77
2021/06/29 10:30:48;;;;;;;7.68;4.10;;;32.10;53.40;;;;;;4700125;30;19911;-76
2021/06/29 10:33:15;;;;;;;5.53;4.60;;;32.10;53.20;;;;;;4692259;30;20325;-77
2021/06/29 10:35:42;;;;;;;4.35;3.72;;;32.30;53.50;;;;;;4693149;30;20037;-77
2021/06/29 10:38:08;;;;;;;8.90;3.70;;;32.20;52.60;;;;;;4694672;30;20049;-75
2021/06/29 10:40:35;;;;;;;9.05;4.22;;;32.20;52.40;;;;;;4693656;30;20306;-76
2021/06/29 10:43:02;;;;;;;3.97;3.58;;;32.00;52.50;;;;;;4691948;30;20109;-77
2021/06/29 10:45:36;;;;;;;5.13;3.42;;;32.00;52.10;;;;;;4693506;30;20076;-78
2021/06/29 10:48:26;;;;;;;4.90;3.78;;;32.00;54.10;;;;;;4695250;30;20452;-78
2021/06/29 10:50:54;;;;;;;8.27;4.60;;;32.20;53.40;;;;;;4707778;30;20068;-78
2021/06/29 10:53:33;;;;;;;5.90;4.53;;;32.40;52.50;;;;;;4697972;30;20033;-79
2021/06/29 10:56:01;;;;;;;6.68;3.78;;;32.80;51.20;;;;;;4712352;30;20025;-79
2021/06/29 10:58:40;;;;;;;7.95;4.15;;;32.40;50.90;;;;;;4698097;30;20042;-79
2021/06/29 11:01:25;;;;;;;5.95;4.40;;;32.40;51.80;;;;;;4705487;30;20225;-79
2021/06/29 11:03:53;;;;;;;6.15;3.85;;;32.50;51.50;;;;;;4699888;30;20367;-79
2021/06/29 11:06:34;;;;;;;3.97;3.60;;;32.40;52.00;;;;;;4700235;30;20037;-77
2021/06/29 11:09:01;;;;;;;6.20;4.28;;;32.50;52.50;;;;;;4693728;30;20041;-77
2021/06/29 11:11:29;;;;;;;6.13;4.13;;;32.40;51.80;;;;;;4693668;30;20233;-79
2021/06/29 11:13:55;;;;;;;11.32;5.13;;;32.40;51.90;;;;;;4702974;30;20093;-79
2021/06/29 11:16:53;;;;;;;9.95;5.05;;;32.50;52.50;;;;;;4699114;30;20034;-79
2021/06/29 11:19:20;;;;;;;7.93;4.15;;;32.70;52.80;;;;;;4700246;30;20275;-79
2021/06/29 11:21:46;;;;;;;8.15;4.72;;;32.80;50.80;;;;;;4697062;30;20038;-79
2021/06/29 11:25:01;;;;;;;13.25;4.93;;;32.70;50.50;;;;;;4694097;30;20046;-79
2021/06/29 11:28:02;;;;;;;10.13;4.10;;;32.70;50.30;;;;;;4662632;30;20098;-79
2021/06/29 11:30:54;;;;;;;5.20;3.95;;;32.80;52.80;;;;;;4635378;30;20156;-80
2021/06/29 11:33:34;;;;;;;7.43;6.13;;;33.10;49.90;;;;;;4675287;30;20334;-79
2021/06/29 11:36:01;;;;;;;4.47;4.07;;;33.20;51.00;;;;;;4661245;30;20097;-80
2021/06/29 11:38:45;;;;;;;5.60;4.38;;;33.40;51.90;;;;;;4656784;30;20042;-79
2021/06/29 11:41:33;;;;;;;6.80;4.25;;;33.60;50.50;;;;;;4647188;30;20308;-80
2021/06/29 11:44:07;;;;;;;4.30;3.90;;;33.60;48.80;;;;;;4678538;30;20401;-79
2021/06/29 11:46:49;;;;;;;5.60;3.97;;;33.70;50.80;;;;;;4647259;30;20055;-79
2021/06/29 11:49:18;;;;;;;6.18;3.63;;;33.70;49.10;;;;;;4663898;30;20073;-79
2021/06/29 11:52:01;;;;;;;4.13;3.30;;;33.50;48.30;;;;;;4662265;30;20386;-80
2021/06/29 11:54:32;;;;;;;7.53;4.25;;;33.70;50.80;;;;;;4651154;30;20098;-78
2021/06/29 11:57:20;;;;;;;5.13;4.10;;;33.80;49.90;;;;;;4659939;30;20034;-80
2021/06/29 11:59:47;;;;;;;5.90;4.93;;;33.90;50.40;;;;;;4647552;30;20102;-79
2021/06/29 12:02:18;;;;;;;8.48;4.00;;;34.20;49.00;;;;;;4685684;30;20052;-80
2021/06/29 12:04:53;;;;;;;7.00;4.20;;;34.40;50.00;;;;;;4697621;30;20030;-79
2021/06/29 12:07:28;;;;;;;5.60;3.88;;;34.50;48.80;;;;;;4696157;30;20034;-80
2021/06/29 12:09:54;;;;;;;4.70;4.18;;;34.50;47.80;;;;;;4711189;30;20064;-79
2021/06/29 12:12:26;;;;;;;8.93;4.47;;;34.10;46.30;;;;;;4697295;30;20065;-80
2021/06/29 12:15:22;;;;;;;6.70;4.30;;;34.00;47.60;;;;;;4696428;30;20052;-79
2021/06/29 12:17:52;;;;;;;;;;;34.30;47.80;;;;;;4664276;30;20093;-77
2021/06/29 12:20:22;;;;;;;8.18;4.38;;;34.40;49.10;;;;;;4662441;30;19958;-79
2021/06/29 12:22:49;;;;;;;5.13;4.05;;;34.60;48.00;;;;;;4650063;30;20078;-80
2021/06/29 12:25:22;;;;;;;5.78;4.30;;;34.60;49.00;;;;;;4663483;30;20053;-80
2021/06/29 12:27:51;;;;;;;3.85;3.53;;;34.70;46.60;;;;;;4676761;30;20348;-81
2021/06/29 12:30:26;;;;;;;10.65;4.20;;;34.80;46.80;;;;;;4664487;30;20042;-78
2021/06/29 12:32:53;;;;;;;4.28;3.88;;;34.70;46.70;;;;;;4650666;30;20034;-78
2021/06/29 12:35:21;;;;;;;7.93;3.97;;;34.70;47.90;;;;;;4680049;30;20050;-79
2021/06/29 12:37:59;;;;;;;7.53;4.25;;;34.70;46.60;;;;;;4682983;30;20061;-78
2021/06/29 12:40:28;;;;;;;4.20;3.55;;;34.60;46.50;;;;;;4667794;30;20047;-79
2021/06/29 12:42:54;;;;;;;6.07;4.32;;;34.70;47.50;;;;;;4676807;30;20045;-79
2021/06/29 12:45:21;;;;;;;6.45;3.72;;;34.50;46.30;;;;;;4679000;30;20031;-79
2021/06/29 12:48:04;;;;;;;9.93;4.43;;;34.50;47.00;;;;;;4650668;30;20069;-78
2021/06/29 12:50:30;;;;;;;8.82;4.57;;;34.60;48.30;;;;;;4667039;30;20341;-78
2021/06/29 12:52:56;;;;;;;7.18;4.15;;;34.70;47.30;;;;;;4647169;30;20041;-76
2021/06/29 12:55:23;;;;;;;7.20;3.50;;;34.90;46.80;;;;;;4691631;30;20225;-79
2021/06/29 12:58:10;;;;;;;10.55;3.85;;;34.80;46.50;;;;;;4684459;30;20289;-78
2021/06/29 13:00:41;;;;;;;6.28;4.35;;;34.80;44.90;;;;;;4697484;30;20115;-78
2021/06/29 13:03:08;;;;;;;4.28;3.83;;;34.60;47.50;;;;;;4698429;30;20101;-79
2021/06/29 13:05:34;;;;;;;9.35;3.85;;;34.80;48.60;;;;;;4697065;30;20026;-78
2021/06/29 13:08:17;;;;;;;11.82;3.97;;;35.00;46.90;;;;;;4698004;30;20061;-78
2021/06/29 13:10:45;;;;;;;8.20;4.57;;;35.00;46.00;;;;;;4694880;30;20090;-77
2021/06/29 13:13:23;;;;;;;9.25;4.50;;;35.00;45.70;;;;;;4693559;30;20053;-78
2021/06/29 13:15:51;;;;;;;7.68;3.55;;;35.10;48.50;;;;;;4695288;30;20337;-79
2021/06/29 13:18:46;;;;;;;11.25;4.82;;;35.10;45.30;;;;;;4682943;30;20270;-79
2021/06/29 13:21:16;;;;;;;6.78;3.75;;;35.10;47.40;;;;;;4646665;30;20138;-76
2021/06/29 13:23:57;;;;;;;4.65;4.03;;;35.00;46.90;;;;;;4652330;30;20035;-80
2021/06/29 13:26:24;;;;;;;8.07;3.92;;;35.00;44.70;;;;;;4646627;30;20047;-78
2021/06/29 13:28:50;;;;;;;8.75;3.75;;;34.80;44.90;;;;;;4660257;30;20034;-77
2021/06/29 13:31:16;;;;;;;5.97;4.20;;;34.90;45.50;;;;;;4657259;30;20327;-77
2021/06/29 13:33:42;;;;;;;9.30;4.20;;;35.00;48.10;;;;;;4646359;30;20046;-77
2021/06/29 13:36:09;;;;;;;6.25;3.85;;;35.10;45.20;;;;;;4640122;30;20092;-77
2021/06/29 13:38:35;;;;;;;11.98;4.43;;;35.10;48.60;;;;;;4653810;30;20047;-76
2021/06/29 13:41:01;;;;;;;8.70;3.78;;;35.10;46.60;;;;;;4662410;30;20069;-76
2021/06/29 13:43:31;;;;;;;4.28;3.85;;;35.00;45.80;;;;;;4661811;30;20100;-76
2021/06/29 13:46:00;;;;;;;10.13;4.85;;;35.10;47.90;;;;;;4675507;30;20046;-75
2021/06/29 13:48:26;;;;;;;3.70;3.33;;;35.20;46.50;;;;;;4688927;30;20054;-79
2021/06/29 13:50:51;;;;;;;6.93;4.27;;;35.30;47.20;;;;;;4663546;30;20090;-79
2021/06/29 13:53:26;;;;;;;9.17;3.93;;;35.40;45.20;;;;;;4676178;30;20039;-79
2021/06/29 13:55:54;;;;;;;4.50;4.05;;;35.50;44.10;;;;;;4663156;30;20034;-78
2021/06/29 13:58:23;;;;;;;7.68;4.15;;;35.30;43.40;;;;;;4678390;30;20234;-79
2021/06/29 14:01:10;;;;;;;7.88;3.78;;;35.10;44.10;;;;;;4686726;30;20080;-78
2021/06/29 14:03:37;;;;;;;6.38;3.85;;;35.00;45.60;;;;;;4682995;30;20033;-79
2021/06/29 14:06:12;;;;;;;13.20;4.18;;;34.90;45.40;;;;;;4699998;30;20057;-79
2021/06/29 14:08:46;;;;;;;4.35;3.40;;;35.00;45.90;;;;;;4682776;30;20030;-79
2021/06/29 14:11:21;;;;;;;7.10;3.90;;;35.10;44.90;;;;;;4681068;30;20038;-78
2021/06/29 14:13:58;;;;;;;9.52;4.60;;;35.10;44.80;;;;;;4696645;30;20034;-77
2021/06/29 14:16:25;;;;;;;9.05;4.13;;;35.00;44.70;;;;;;4695353;30;20490;-77
2021/06/29 14:18:52;;;;;;;7.32;4.00;;;35.10;44.60;;;;;;4698629;30;20033;-79
2021/06/29 14:21:24;;;;;;;7.85;3.95;;;35.10;47.50;;;;;;4697530;30;20059;-78
2021/06/29 14:23:53;;;;;;;6.45;3.78;;;35.10;45.20;;;;;;4682367;30;20057;-79
2021/06/29 14:26:19;;;;;;;10.32;4.05;;;35.10;45.00;;;;;;4678545;30;20022;-79
2021/06/29 14:28:46;;;;;;;4.97;4.03;;;35.20;45.50;;;;;;4696463;30;20057;-79
2021/06/29 14:31:12;;;;;;;;;;;35.30;44.70;;;;;;4684327;30;20113;-77
2021/06/29 14:33:38;;;;;;;6.57;3.97;;;35.40;45.90;;;;;;4685864;30;19943;-77
2021/06/29 14:36:13;;;;;;;5.57;3.30;;;35.50;44.20;;;;;;4717071;30;20042;-79
2021/06/29 14:38:40;;;;;;;11.17;3.87;;;35.40;44.60;;;;;;4697512;30;20092;-79
2021/06/29 14:41:07;;;;;;;6.55;3.85;;;35.20;43.90;;;;;;4697672;30;20038;-79
2021/06/29 14:43:35;;;;;;;8.82;3.85;;;35.00;44.30;;;;;;4694260;30;20050;-78
2021/06/29 14:46:02;;;;;;;7.25;3.80;;;34.80;45.20;;;;;;4694605;30;20045;-79
2021/06/29 14:48:28;;;;;;;9.27;3.83;;;34.80;44.70;;;;;;4695056;30;20031;-79
2021/06/29 14:50:54;;;;;;;6.83;3.90;;;35.00;45.50;;;;;;4700382;30;20041;-79
2021/06/29 14:53:20;;;;;;;4.57;4.18;;;35.10;44.30;;;;;;4697736;30;20106;-79
2021/06/29 14:55:46;;;;;;;7.68;4.03;;;35.10;43.90;;;;;;4700538;30;20050;-79
2021/06/29 14:58:12;;;;;;;7.85;4.30;;;35.10;45.50;;;;;;4699346;30;20046;-79
2021/06/29 15:00:38;;;;;;;8.77;4.07;;;35.20;44.40;;;;;;4695705;30;20034;-79
2021/06/29 15:03:07;;;;;;;7.45;3.70;;;35.20;44.20;;;;;;4699837;30;20034;-79
2021/06/29 15:05:33;;;;;;;5.13;3.72;;;35.20;45.10;;;;;;4696704;30;20097;-78
2021/06/29 15:08:00;;;;;;;7.35;3.85;;;35.20;46.10;;;;;;4704656;30;20034;-79
2021/06/29 15:10:26;;;;;;;;;;;35.20;44.60;;;;;;4712454;30;20030;-79
2021/06/29 15:12:53;;;;;;;9.27;3.70;;;35.10;45.50;;;;;;4700815;30;19919;-79
2021/06/29 15:15:19;;;;;;;;;;;35.00;45.10;;;;;;4702822;30;20030;-78
2021/06/29 15:17:46;;;;;;;9.07;3.88;;;35.10;45.40;;;;;;4705085;30;19958;-78
2021/06/29 15:20:15;;;;;;;9.35;4.15;;;35.10;44.70;;;;;;4712668;30;20060;-78
2021/06/29 15:22:42;;;;;;;11.70;5.05;;;35.10;45.20;;;;;;4693045;30;20439;-77
2021/06/29 15:25:10;;;;;;;10.05;3.70;;;35.10;44.80;;;;;;4711800;30;20034;-77
2021/06/29 15:27:36;;;;;;;10.88;4.07;;;35.10;45.80;;;;;;4712844;30;20119;-78
2021/06/29 15:30:03;;;;;;;10.55;3.42;;;35.20;45.40;;;;;;4705074;30;20034;-78
2021/06/29 15:32:29;;;;;;;12.35;4.10;;;35.10;44.80;;;;;;4698478;30;20117;-78
2021/06/29 15:34:55;;;;;;;;;;;35.10;44.10;;;;;;4702244;30;20090;-78
2021/06/29 15:37:22;;;;;;;12.50;3.83;;;35.00;44.40;;;;;;4714891;30;19974;-78
2021/06/29 15:39:49;;;;;;;7.07;3.97;;;34.80;44.90;;;;;;4697531;30;20038;-78
2021/06/29 15:42:15;;;;;;;9.63;3.88;;;34.90;46.10;;;;;;4697195;30;20065;-78